sensor_id;sensor_type;location;lat;lon;timestamp;pressure;altitude;pressure_sealevel;temperature;humidity
13734;BME280;43298;52.560;13.508;2022-09-03T00:05:25;101286.00;;;13.25;100.00
13734;BME280;43298;52.560;13.508;2022-09-03T00:08:32;101287.78;;;13.23;100.00
13734;BME280;43298;52.560;13.508;2022-09-03T00:11:27;101284.28;;;13.24;100.00
13734;BME280;43298;52.560;13.508;2022-09-03T00:14:08;101277.66;;;13.17;100.00
13734;BME280;43298;52.560;13.508;2022-09-03T00:19:21;101278.72;;;13.13;100.00
13734;BME280;43298;52.560;13.508;2022-09-03T00:22:16;101278.16;;;13.07;100.00
13734;BME280;43298;52.560;13.508;2022-09-03T00:24:45;101273.88;;;13.06;100.00
13734;BME280;43298;52.560;13.508;2022-09-03T00:27:18;101277.56;;;13.00;100.00
13734;BME280;43298;52.560;13.508;2022-09-03T00:30:00;101270.06;;;12.93;100.00
13734;BME280;43298;52.560;13.508;2022-09-03T00:33:00;101270.13;;;12.91;100.00
13734;BME280;43298;52.560;13.508;2022-09-03T00:38:29;101267.59;;;12.90;100.00
13734;BME280;43298;52.560;13.508;2022-09-03T01:00:48;101241.06;;;12.63;100.00
13734;BME280;43298;52.560;13.508;2022-09-03T01:03:44;101241.13;;;12.62;100.00
13734;BME280;43298;52.560;13.508;2022-09-03T01:06:58;101241.97;;;12.62;100.00
13734;BME280;43298;52.560;13.508;2022-09-03T01:09:59;101239.31;;;12.64;100.00
13734;BME280;43298;52.560;13.508;2022-09-03T01:15:35;101233.28;;;12.63;100.00
13734;BME280;43298;52.560;13.508;2022-09-03T01:24:25;101226.41;;;12.62;100.00
13734;BME280;43298;52.560;13.508;2022-09-03T01:27:06;101233.03;;;12.69;100.00
13734;BME280;43298;52.560;13.508;2022-09-03T01:33:10;101221.53;;;12.55;100.00
13734;BME280;43298;52.560;13.508;2022-09-03T01:38:26;101217.25;;;12.54;100.00
13734;BME280;43298;52.560;13.508;2022-09-03T01:46:42;101205.31;;;12.50;100.00
13734;BME280;43298;52.560;13.508;2022-09-03T01:49:29;101207.00;;;12.51;100.00
13734;BME280;43298;52.560;13.508;2022-09-03T01:52:13;101202.91;;;12.45;100.00
13734;BME280;43298;52.560;13.508;2022-09-03T01:55:04;101205.38;;;12.48;100.00
13734;BME280;43298;52.560;13.508;2022-09-03T02:00:41;101206.44;;;12.44;100.00
13734;BME280;43298;52.560;13.508;2022-09-03T02:03:09;101202.22;;;12.42;100.00
13734;BME280;43298;52.560;13.508;2022-09-03T02:05:35;101203.16;;;12.39;100.00
13734;BME280;43298;52.560;13.508;2022-09-03T02:08:04;101205.63;;;12.42;100.00
13734;BME280;43298;52.560;13.508;2022-09-03T02:10:39;101202.91;;;12.45;100.00
13734;BME280;43298;52.560;13.508;2022-09-03T02:13:26;101208.22;;;12.42;100.00
13734;BME280;43298;52.560;13.508;2022-09-03T02:15:58;101207.34;;;12.43;100.00
13734;BME280;43298;52.560;13.508;2022-09-03T02:18:33;101206.78;;;12.35;100.00
13734;BME280;43298;52.560;13.508;2022-09-03T02:21:02;101207.19;;;12.26;100.00
13734;BME280;43298;52.560;13.508;2022-09-03T02:23:29;101204.72;;;12.23;100.00
13734;BME280;43298;52.560;13.508;2022-09-03T02:26:01;101208.00;;;12.27;100.00
13734;BME280;43298;52.560;13.508;2022-09-03T02:28:29;101195.84;;;12.29;100.00
13734;BME280;43298;52.560;13.508;2022-09-03T02:30:56;101205.47;;;12.25;100.00
13734;BME280;43298;52.560;13.508;2022-09-03T02:33:21;101199.59;;;12.22;100.00
13734;BME280;43298;52.560;13.508;2022-09-03T02:35:48;101198.59;;;12.24;100.00
13734;BME280;43298;52.560;13.508;2022-09-03T02:38:25;101199.72;;;12.18;100.00
13734;BME280;43298;52.560;13.508;2022-09-03T02:40:51;101197.97;;;12.19;100.00
13734;BME280;43298;52.560;13.508;2022-09-03T02:43:46;101199.00;;;12.15;100.00
13734;BME280;43298;52.560;13.508;2022-09-03T02:46:22;101191.41;;;12.10;100.00
13734;BME280;43298;52.560;13.508;2022-09-03T02:48:50;101196.81;;;12.04;100.00
13734;BME280;43298;52.560;13.508;2022-09-03T02:51:15;101196.81;;;12.04;100.00
13734;BME280;43298;52.560;13.508;2022-09-03T02:53:42;101191.91;;;11.98;100.00
13734;BME280;43298;52.560;13.508;2022-09-03T02:56:07;101191.00;;;11.99;100.00
13734;BME280;43298;52.560;13.508;2022-09-03T02:58:33;101193.53;;;12.01;100.00
13734;BME280;43298;52.560;13.508;2022-09-03T03:00:59;101197.00;;;12.00;100.00
13734;BME280;43298;52.560;13.508;2022-09-03T03:03:25;101194.69;;;11.94;100.00
13734;BME280;43298;52.560;13.508;2022-09-03T03:05:55;101183.56;;;11.90;100.00
13734;BME280;43298;52.560;13.508;2022-09-03T03:08:24;101185.47;;;11.87;100.00
13734;BME280;43298;52.560;13.508;2022-09-03T03:10:54;101180.50;;;11.81;100.00
13734;BME280;43298;52.560;13.508;2022-09-03T03:13:22;101179.75;;;11.79;100.00
13734;BME280;43298;52.560;13.508;2022-09-03T03:15:47;101178.03;;;11.78;100.00
13734;BME280;43298;52.560;13.508;2022-09-03T03:18:14;101178.88;;;11.78;100.00
13734;BME280;43298;52.560;13.508;2022-09-03T03:20:42;101175.56;;;11.75;100.00
13734;BME280;43298;52.560;13.508;2022-09-03T03:23:09;101168.63;;;11.75;100.00
13734;BME280;43298;52.560;13.508;2022-09-03T03:25:37;101168.06;;;11.69;100.00
13734;BME280;43298;52.560;13.508;2022-09-03T03:28:04;101173.13;;;11.72;100.00
13734;BME280;43298;52.560;13.508;2022-09-03T03:30:31;101178.78;;;11.81;100.00
13734;BME280;43298;52.560;13.508;2022-09-03T03:32:57;101184.84;;;11.80;100.00
13734;BME280;43298;52.560;13.508;2022-09-03T03:35:24;101177.91;;;11.81;100.00
13734;BME280;43298;52.560;13.508;2022-09-03T03:37:50;101171.19;;;11.77;100.00
13734;BME280;43298;52.560;13.508;2022-09-03T03:40:16;101184.78;;;11.82;100.00
13734;BME280;43298;52.560;13.508;2022-09-03T03:42:42;101179.59;;;11.82;100.00
13734;BME280;43298;52.560;13.508;2022-09-03T03:45:09;101183.78;;;11.86;100.00
13734;BME280;43298;52.560;13.508;2022-09-03T03:47:35;101188.81;;;11.89;100.00
13734;BME280;43298;52.560;13.508;2022-09-03T03:50:03;101193.75;;;11.95;100.00
13734;BME280;43298;52.560;13.508;2022-09-03T03:52:29;101189.22;;;12.00;100.00
13734;BME280;43298;52.560;13.508;2022-09-03T03:54:55;101190.59;;;12.08;100.00
13734;BME280;43298;52.560;13.508;2022-09-03T03:57:21;101198.28;;;12.11;100.00
13734;BME280;43298;52.560;13.508;2022-09-03T03:59:48;101193.81;;;12.15;100.00
13734;BME280;43298;52.560;13.508;2022-09-03T04:02:16;101190.38;;;12.14;100.00
13734;BME280;43298;52.560;13.508;2022-09-03T04:04:42;101192.97;;;12.14;100.00
13734;BME280;43298;52.560;13.508;2022-09-03T04:07:09;101184.53;;;12.09;100.00
13734;BME280;43298;52.560;13.508;2022-09-03T04:09:34;101183.50;;;12.13;100.00
13734;BME280;43298;52.560;13.508;2022-09-03T04:12:01;101179.16;;;12.14;100.00
13734;BME280;43298;52.560;13.508;2022-09-03T04:14:28;101174.88;;;12.13;100.00
13734;BME280;43298;52.560;13.508;2022-09-03T04:16:54;101172.53;;;12.07;100.00
13734;BME280;43298;52.560;13.508;2022-09-03T04:19:21;101173.56;;;12.03;100.00
13734;BME280;43298;52.560;13.508;2022-09-03T04:21:47;101164.28;;;11.97;100.00
13734;BME280;43298;52.560;13.508;2022-09-03T04:24:13;101167.63;;;12.01;100.00
13734;BME280;43298;52.560;13.508;2022-09-03T04:26:39;101163.19;;;12.03;100.00
13734;BME280;43298;52.560;13.508;2022-09-03T04:29:08;101155.69;;;11.97;100.00
13734;BME280;43298;52.560;13.508;2022-09-03T04:31:36;101145.09;;;12.01;100.00
13734;BME280;43298;52.560;13.508;2022-09-03T04:34:03;101139.22;;;11.98;100.00
13734;BME280;43298;52.560;13.508;2022-09-03T04:36:31;101132.34;;;11.97;100.00
13734;BME280;43298;52.560;13.508;2022-09-03T04:38:59;101128.78;;;11.99;100.00
13734;BME280;43298;52.560;13.508;2022-09-03T04:41:28;101128.41;;;12.08;100.00
13734;BME280;43298;52.560;13.508;2022-09-03T04:43:57;101129.06;;;12.13;100.00
13734;BME280;43298;52.560;13.508;2022-09-03T04:46:26;101128.22;;;12.13;100.00
13734;BME280;43298;52.560;13.508;2022-09-03T04:48:57;101128.09;;;12.16;100.00
13734;BME280;43298;52.560;13.508;2022-09-03T04:51:27;101119.22;;;12.22;100.00
13734;BME280;43298;52.560;13.508;2022-09-03T04:53:57;101117.47;;;12.22;100.00
13734;BME280;43298;52.560;13.508;2022-09-03T04:56:27;101119.09;;;12.25;100.00
13734;BME280;43298;52.560;13.508;2022-09-03T04:59:00;101115.25;;;12.33;100.00
13734;BME280;43298;52.560;13.508;2022-09-03T05:01:28;101115.84;;;12.40;100.00
13734;BME280;43298;52.560;13.508;2022-09-03T05:03:55;101124.00;;;12.51;100.00
13734;BME280;43298;52.560;13.508;2022-09-03T05:06:22;101122.75;;;12.59;100.00
13734;BME280;43298;52.560;13.508;2022-09-03T05:08:51;101120.03;;;12.62;100.00
13734;BME280;43298;52.560;13.508;2022-09-03T05:11:18;101118.19;;;12.64;100.00
13734;BME280;43298;52.560;13.508;2022-09-03T05:13:52;101113.00;;;12.64;100.00
13734;BME280;43298;52.560;13.508;2022-09-03T05:16:19;101123.38;;;12.64;100.00
13734;BME280;43298;52.560;13.508;2022-09-03T05:18:46;101120.78;;;12.64;100.00
13734;BME280;43298;52.560;13.508;2022-09-03T05:21:15;101115.81;;;12.60;100.00
13734;BME280;43298;52.560;13.508;2022-09-03T05:23:47;101115.59;;;12.64;100.00
13734;BME280;43298;52.560;13.508;2022-09-03T05:26:23;101111.25;;;12.65;100.00
13734;BME280;43298;52.560;13.508;2022-09-03T05:28:57;101111.88;;;12.70;100.00
13734;BME280;43298;52.560;13.508;2022-09-03T05:31:26;101120.25;;;12.76;100.00
13734;BME280;43298;52.560;13.508;2022-09-03T05:33:56;101118.44;;;12.78;100.00
13734;BME280;43298;52.560;13.508;2022-09-03T05:36:28;101106.03;;;12.85;100.00
13734;BME280;43298;52.560;13.508;2022-09-03T05:38:54;101116.00;;;12.94;100.00
13734;BME280;43298;52.560;13.508;2022-09-03T05:41:21;101119.28;;;12.99;100.00
13734;BME280;43298;52.560;13.508;2022-09-03T05:43:49;101116.03;;;13.12;100.00
13734;BME280;43298;52.560;13.508;2022-09-03T05:46:26;101121.56;;;13.23;100.00
13734;BME280;43298;52.560;13.508;2022-09-03T05:48:59;101119.19;;;13.37;100.00
13734;BME280;43298;52.560;13.508;2022-09-03T05:51:27;101126.75;;;13.42;100.00
13734;BME280;43298;52.560;13.508;2022-09-03T05:53:53;101136.63;;;13.52;100.00
13734;BME280;43298;52.560;13.508;2022-09-03T05:56:23;101131.78;;;13.63;100.00
13734;BME280;43298;52.560;13.508;2022-09-03T05:58:56;101133.03;;;13.73;100.00
13734;BME280;43298;52.560;13.508;2022-09-03T06:01:28;101135.41;;;13.78;100.00
13734;BME280;43298;52.560;13.508;2022-09-03T06:04:01;101135.34;;;13.79;100.00
13734;BME280;43298;52.560;13.508;2022-09-03T06:06:30;101141.66;;;13.74;100.00
13734;BME280;43298;52.560;13.508;2022-09-03T06:08:59;101145.09;;;13.74;100.00
13734;BME280;43298;52.560;13.508;2022-09-03T06:11:28;101138.22;;;13.73;100.00
13734;BME280;43298;52.560;13.508;2022-09-03T06:13:55;101135.47;;;13.76;100.00
13734;BME280;43298;52.560;13.508;2022-09-03T06:16:22;101142.75;;;13.87;100.00
13734;BME280;43298;52.560;13.508;2022-09-03T06:18:48;101146.38;;;14.01;100.00
13734;BME280;43298;52.560;13.508;2022-09-03T06:21:14;101154.78;;;14.74;100.00
13734;BME280;43298;52.560;13.508;2022-09-03T06:23:40;101172.91;;;14.76;100.00
13734;BME280;43298;52.560;13.508;2022-09-03T06:26:12;101173.31;;;14.68;100.00
13734;BME280;43298;52.560;13.508;2022-09-03T06:28:40;101176.06;;;14.65;100.00
13734;BME280;43298;52.560;13.508;2022-09-03T06:31:10;101176.94;;;14.49;100.00
13734;BME280;43298;52.560;13.508;2022-09-03T06:33:38;101177.69;;;14.51;100.00
13734;BME280;43298;52.560;13.508;2022-09-03T06:36:09;101181.63;;;14.75;100.00
13734;BME280;43298;52.560;13.508;2022-09-03T06:38:36;101187.69;;;14.92;100.00
13734;BME280;43298;52.560;13.508;2022-09-03T06:41:10;101194.44;;;14.79;100.00
13734;BME280;43298;52.560;13.508;2022-09-03T06:43:40;101191.94;;;14.93;100.00
13734;BME280;43298;52.560;13.508;2022-09-03T06:46:16;101192.88;;;14.92;100.00
13734;BME280;43298;52.560;13.508;2022-09-03T06:48:42;101194.44;;;15.12;100.00
13734;BME280;43298;52.560;13.508;2022-09-03T06:51:17;101203.78;;;15.16;100.00
13734;BME280;43298;52.560;13.508;2022-09-03T06:53:47;101214.47;;;15.27;100.00
13734;BME280;43298;52.560;13.508;2022-09-03T06:56:18;101216.22;;;15.59;100.00
13734;BME280;43298;52.560;13.508;2022-09-03T06:58:47;101219.06;;;15.86;100.00
13734;BME280;43298;52.560;13.508;2022-09-03T07:03:41;101253.72;;;16.64;100.00
13734;BME280;43298;52.560;13.508;2022-09-03T07:06:17;101256.44;;;16.76;100.00
13734;BME280;43298;52.560;13.508;2022-09-03T07:08:44;101262.53;;;16.91;100.00
13734;BME280;43298;52.560;13.508;2022-09-03T07:11:16;101270.81;;;16.69;100.00
13734;BME280;43298;52.560;13.508;2022-09-03T07:13:46;101278.72;;;16.68;100.00
13734;BME280;43298;52.560;13.508;2022-09-03T07:16:15;101274.50;;;17.09;100.00
13734;BME280;43298;52.560;13.508;2022-09-03T07:18:41;101291.88;;;17.38;100.00
13734;BME280;43298;52.560;13.508;2022-09-03T07:21:23;101292.09;;;17.35;100.00
13734;BME280;43298;52.560;13.508;2022-09-03T07:23:51;101299.25;;;18.02;100.00
13734;BME280;43298;52.560;13.508;2022-09-03T07:26:24;101297.78;;;17.27;100.00
13734;BME280;43298;52.560;13.508;2022-09-03T07:28:52;101294.09;;;17.16;100.00
13734;BME280;43298;52.560;13.508;2022-09-03T07:31:23;101296.19;;;16.81;100.00
13734;BME280;43298;52.560;13.508;2022-09-03T07:33:56;101300.44;;;17.12;100.00
13734;BME280;43298;52.560;13.508;2022-09-03T07:36:26;101306.47;;;17.28;100.00
13734;BME280;43298;52.560;13.508;2022-09-03T07:38:57;101318.91;;;18.21;100.00
13734;BME280;43298;52.560;13.508;2022-09-03T07:41:25;101333.44;;;18.13;100.00
13734;BME280;43298;52.560;13.508;2022-09-03T07:43:52;101328.75;;;18.04;100.00
13734;BME280;43298;52.560;13.508;2022-09-03T07:46:21;101328.84;;;17.61;100.00
13734;BME280;43298;52.560;13.508;2022-09-03T07:48:53;101325.72;;;17.55;100.00
13734;BME280;43298;52.560;13.508;2022-09-03T07:51:21;101333.00;;;17.92;100.00
13734;BME280;43298;52.560;13.508;2022-09-03T07:53:56;101328.63;;;17.50;100.00
13734;BME280;43298;52.560;13.508;2022-09-03T07:56:24;101330.59;;;17.47;100.00
13734;BME280;43298;52.560;13.508;2022-09-03T07:58:50;101333.22;;;17.17;100.00
13734;BME280;43298;52.560;13.508;2022-09-03T08:01:19;101340.22;;;17.60;100.00
13734;BME280;43298;52.560;13.508;2022-09-03T08:03:51;101335.41;;;17.39;100.00
13734;BME280;43298;52.560;13.508;2022-09-03T08:06:25;101337.59;;;17.46;100.00
13734;BME280;43298;52.560;13.508;2022-09-03T08:09:00;101335.72;;;17.48;100.00
13734;BME280;43298;52.560;13.508;2022-09-03T08:11:28;101335.66;;;17.64;100.00
13734;BME280;43298;52.560;13.508;2022-09-03T08:14:01;101339.66;;;17.41;100.00
13734;BME280;43298;52.560;13.508;2022-09-03T08:16:30;101334.53;;;17.24;100.00
13734;BME280;43298;52.560;13.508;2022-09-03T08:18:57;101329.50;;;17.35;100.00
13734;BME280;43298;52.560;13.508;2022-09-03T08:21:23;101331.84;;;17.40;100.00
13734;BME280;43298;52.560;13.508;2022-09-03T08:23:52;101336.84;;;17.87;100.00
13734;BME280;43298;52.560;13.508;2022-09-03T08:26:20;101345.63;;;17.85;100.00
13734;BME280;43298;52.560;13.508;2022-09-03T08:28:47;101348.81;;;18.31;100.00
13734;BME280;43298;52.560;13.508;2022-09-03T08:31:20;101346.16;;;18.59;100.00
13734;BME280;43298;52.560;13.508;2022-09-03T08:33:51;101361.53;;;19.54;100.00
13734;BME280;43298;52.560;13.508;2022-09-03T08:36:21;101358.38;;;19.62;100.00
13734;BME280;43298;52.560;13.508;2022-09-03T08:38:48;101356.00;;;20.07;100.00
13734;BME280;43298;52.560;13.508;2022-09-03T08:44:48;101350.94;;;20.04;100.00
13734;BME280;43298;52.560;13.508;2022-09-03T08:47:47;101344.63;;;20.32;100.00
13734;BME280;43298;52.560;13.508;2022-09-03T08:50:37;101344.09;;;20.27;100.00
13734;BME280;43298;52.560;13.508;2022-09-03T08:55:55;101342.31;;;20.27;100.00
13734;BME280;43298;52.560;13.508;2022-09-03T08:58:26;101344.19;;;20.73;100.00
13734;BME280;43298;52.560;13.508;2022-09-03T09:04:13;101330.63;;;20.55;100.00
13734;BME280;43298;52.560;13.508;2022-09-03T09:07:10;101331.56;;;21.01;100.00
13734;BME280;43298;52.560;13.508;2022-09-03T09:13:08;101332.50;;;21.00;100.00
13734;BME280;43298;52.560;13.508;2022-09-03T09:19:12;101332.13;;;21.50;94.04
13734;BME280;43298;52.560;13.508;2022-09-03T09:21:53;101331.72;;;21.44;97.21
13734;BME280;43298;52.560;13.508;2022-09-03T09:24:35;101328.19;;;21.89;90.73
13734;BME280;43298;52.560;13.508;2022-09-03T09:27:05;101325.50;;;22.22;89.46
13734;BME280;43298;52.560;13.508;2022-09-03T09:29:35;101323.25;;;21.95;85.89
13734;BME280;43298;52.560;13.508;2022-09-03T09:32:02;101314.72;;;22.14;85.09
13734;BME280;43298;52.560;13.508;2022-09-03T09:34:36;101313.88;;;22.67;83.24
13734;BME280;43298;52.560;13.508;2022-09-03T09:37:07;101314.91;;;23.16;77.13
13734;BME280;43298;52.560;13.508;2022-09-03T09:39:34;101313.94;;;22.45;79.65
13734;BME280;43298;52.560;13.508;2022-09-03T09:44:38;101312.72;;;22.17;80.22
13734;BME280;43298;52.560;13.508;2022-09-03T09:47:10;101303.50;;;21.90;81.48
13734;BME280;43298;52.560;13.508;2022-09-03T09:49:51;101298.00;;;21.93;82.28
13734;BME280;43298;52.560;13.508;2022-09-03T09:52:17;101304.00;;;22.37;76.87
13734;BME280;43298;52.560;13.508;2022-09-03T09:54:44;101297.38;;;22.85;73.39
13734;BME280;43298;52.560;13.508;2022-09-03T09:57:24;101301.41;;;22.89;74.41
13734;BME280;43298;52.560;13.508;2022-09-03T10:00:09;101299.75;;;22.88;75.05
13734;BME280;43298;52.560;13.508;2022-09-03T10:02:39;101297.75;;;23.52;65.36
13734;BME280;43298;52.560;13.508;2022-09-03T10:05:29;101306.94;;;23.07;65.13
13734;BME280;43298;52.560;13.508;2022-09-03T10:08:01;101298.88;;;23.29;66.75
13734;BME280;43298;52.560;13.508;2022-09-03T10:10:31;101294.16;;;23.23;63.85
13734;BME280;43298;52.560;13.508;2022-09-03T10:13:21;101296.47;;;23.77;65.34
13734;BME280;43298;52.560;13.508;2022-09-03T10:16:20;101291.13;;;22.86;64.06
13734;BME280;43298;52.560;13.508;2022-09-03T10:19:15;101292.06;;;23.26;63.97
13734;BME280;43298;52.560;13.508;2022-09-03T10:24:53;101283.56;;;23.44;61.29
13734;BME280;43298;52.560;13.508;2022-09-03T10:27:22;101285.84;;;23.97;61.62
13734;BME280;43298;52.560;13.508;2022-09-03T10:29:48;101287.19;;;23.52;59.47
13734;BME280;43298;52.560;13.508;2022-09-03T10:32:38;101286.22;;;23.53;63.17
13734;BME280;43298;52.560;13.508;2022-09-03T10:35:34;101274.91;;;24.21;58.79
13734;BME280;43298;52.560;13.508;2022-09-03T10:38:14;101276.94;;;23.98;57.85
13734;BME280;43298;52.560;13.508;2022-09-03T10:40:57;101270.28;;;24.13;60.73
13734;BME280;43298;52.560;13.508;2022-09-03T10:44:24;101278.88;;;23.96;59.52
13734;BME280;43298;52.560;13.508;2022-09-03T10:50:14;101268.50;;;24.14;52.77
13734;BME280;43298;52.560;13.508;2022-09-03T10:53:13;101273.78;;;24.04;57.06
13734;BME280;43298;52.560;13.508;2022-09-03T10:56:00;101274.13;;;23.20;59.53
13734;BME280;43298;52.560;13.508;2022-09-03T10:59:24;101269.59;;;22.70;66.30
13734;BME280;43298;52.560;13.508;2022-09-03T11:05:14;101267.22;;;22.04;68.96
13734;BME280;43298;52.560;13.508;2022-09-03T11:07:50;101255.50;;;21.97;68.34
13734;BME280;43298;52.560;13.508;2022-09-03T11:10:33;101244.94;;;22.08;70.05
13734;BME280;43298;52.560;13.508;2022-09-03T11:13:08;101252.19;;;22.27;70.00
13734;BME280;43298;52.560;13.508;2022-09-03T11:15:55;101244.19;;;22.06;67.46
13734;BME280;43298;52.560;13.508;2022-09-03T11:21:04;101243.88;;;22.31;67.47
13734;BME280;43298;52.560;13.508;2022-09-03T11:23:41;101242.00;;;22.54;68.12
13734;BME280;43298;52.560;13.508;2022-09-03T11:26:13;101240.34;;;23.94;66.66
13734;BME280;43298;52.560;13.508;2022-09-03T11:28:57;101237.75;;;22.83;64.51
13734;BME280;43298;52.560;13.508;2022-09-03T11:32:01;101239.78;;;22.70;65.93
13734;BME280;43298;52.560;13.508;2022-09-03T11:34:51;101234.50;;;22.70;65.38
13734;BME280;43298;52.560;13.508;2022-09-03T11:37:24;101233.34;;;22.83;65.18
13734;BME280;43298;52.560;13.508;2022-09-03T11:40:11;101232.28;;;23.16;64.90
13734;BME280;43298;52.560;13.508;2022-09-03T11:42:41;101227.09;;;23.75;63.76
13734;BME280;43298;52.560;13.508;2022-09-03T11:45:36;101215.72;;;24.50;57.32
13734;BME280;43298;52.560;13.508;2022-09-03T11:48:37;101219.94;;;24.05;53.42
13734;BME280;43298;52.560;13.508;2022-09-03T11:51:03;101218.28;;;23.55;61.99
13734;BME280;43298;52.560;13.508;2022-09-03T11:54:01;101228.91;;;23.14;63.31
13734;BME280;43298;52.560;13.508;2022-09-03T11:56:29;101223.72;;;22.73;65.91
13734;BME280;43298;52.560;13.508;2022-09-03T11:59:22;101215.78;;;22.52;67.22
13734;BME280;43298;52.560;13.508;2022-09-03T12:04:57;101211.81;;;21.95;68.17
13734;BME280;43298;52.560;13.508;2022-09-03T12:13:17;101204.38;;;23.53;62.99
13734;BME280;43298;52.560;13.508;2022-09-03T12:18:28;101191.53;;;24.07;56.97
13734;BME280;43298;52.560;13.508;2022-09-03T12:23:44;101195.19;;;22.87;60.48
13734;BME280;43298;52.560;13.508;2022-09-03T12:26:14;101199.72;;;22.44;60.72
13734;BME280;43298;52.560;13.508;2022-09-03T12:28:47;101198.00;;;22.34;61.19
13734;BME280;43298;52.560;13.508;2022-09-03T12:31:25;101192.56;;;22.15;60.18
13734;BME280;43298;52.560;13.508;2022-09-03T12:34:10;101188.25;;;22.14;60.52
13734;BME280;43298;52.560;13.508;2022-09-03T12:36:40;101193.22;;;22.28;61.97
13734;BME280;43298;52.560;13.508;2022-09-03T12:47:22;101178.66;;;23.46;55.70
13734;BME280;43298;52.560;13.508;2022-09-03T12:49:51;101172.09;;;23.10;56.08
13734;BME280;43298;52.560;13.508;2022-09-03T12:55:44;101176.88;;;22.65;61.01
13734;BME280;43298;52.560;13.508;2022-09-03T12:58:24;101163.00;;;22.93;58.97
13734;BME280;43298;52.560;13.508;2022-09-03T13:01:07;101159.91;;;23.18;58.32
13734;BME280;43298;52.560;13.508;2022-09-03T13:03:55;101171.81;;;24.21;55.76
13734;BME280;43298;52.560;13.508;2022-09-03T13:06:51;101175.53;;;25.02;48.93
13734;BME280;43298;52.560;13.508;2022-09-03T13:09:23;101165.19;;;25.45;44.92
13734;BME280;43298;52.560;13.508;2022-09-03T13:11:51;101147.59;;;24.90;47.38
13734;BME280;43298;52.560;13.508;2022-09-03T13:14:20;101156.34;;;24.16;51.75
13734;BME280;43298;52.560;13.508;2022-09-03T13:16:50;101150.88;;;23.51;55.45
13734;BME280;43298;52.560;13.508;2022-09-03T13:28:53;101154.78;;;22.87;59.06
13734;BME280;43298;52.560;13.508;2022-09-03T13:31:35;101161.28;;;23.13;59.48
13734;BME280;43298;52.560;13.508;2022-09-03T13:34:12;101161.56;;;23.19;56.03
13734;BME280;43298;52.560;13.508;2022-09-03T13:36:57;101158.88;;;23.00;55.71
13734;BME280;43298;52.560;13.508;2022-09-03T13:39:47;101156.00;;;22.83;57.94
13734;BME280;43298;52.560;13.508;2022-09-03T13:42:39;101147.03;;;22.95;58.69
13734;BME280;43298;52.560;13.508;2022-09-03T13:48:11;101152.50;;;22.73;59.29
13734;BME280;43298;52.560;13.508;2022-09-03T13:51:14;101149.94;;;22.62;59.26
13734;BME280;43298;52.560;13.508;2022-09-03T13:54:22;101143.34;;;22.77;60.21
13734;BME280;43298;52.560;13.508;2022-09-03T13:57:06;101139.09;;;22.65;59.59
13734;BME280;43298;52.560;13.508;2022-09-03T14:00:10;101135.44;;;22.77;63.83
13734;BME280;43298;52.560;13.508;2022-09-03T14:06:23;101140.25;;;22.72;60.54
13734;BME280;43298;52.560;13.508;2022-09-03T14:12:20;101132.22;;;22.73;59.28
13734;BME280;43298;52.560;13.508;2022-09-03T14:15:30;101136.44;;;22.55;59.00
13734;BME280;43298;52.560;13.508;2022-09-03T14:21:20;101132.25;;;22.83;60.64
13734;BME280;43298;52.560;13.508;2022-09-03T14:24:06;101133.06;;;22.74;61.02
13734;BME280;43298;52.560;13.508;2022-09-03T14:26:37;101124.56;;;22.70;62.39
13734;BME280;43298;52.560;13.508;2022-09-03T14:40:51;101116.00;;;22.78;57.46
13734;BME280;43298;52.560;13.508;2022-09-03T14:46:37;101119.25;;;22.91;57.60
13734;BME280;43298;52.560;13.508;2022-09-03T14:59:34;101112.75;;;22.24;61.98
13734;BME280;43298;52.560;13.508;2022-09-03T15:01:33;101113.41;;;22.37;60.29
13734;BME280;43298;52.560;13.508;2022-09-03T15:07:21;101107.19;;;23.28;55.68
13734;BME280;43298;52.560;13.508;2022-09-03T15:13:23;101102.63;;;23.40;55.13
13734;BME280;43298;52.560;13.508;2022-09-03T15:18:58;101103.47;;;23.00;57.69
13734;BME280;43298;52.560;13.508;2022-09-03T15:30:00;101109.75;;;23.18;59.61
13734;BME280;43298;52.560;13.508;2022-09-03T15:39:04;101106.91;;;23.21;56.25
13734;BME280;43298;52.560;13.508;2022-09-03T15:44:50;101107.22;;;23.85;52.06
13734;BME280;43298;52.560;13.508;2022-09-03T15:47:37;101106.38;;;23.37;54.08
13734;BME280;43298;52.560;13.508;2022-09-03T15:53:23;101104.53;;;23.38;57.26
13734;BME280;43298;52.560;13.508;2022-09-03T15:56:14;101110.09;;;22.95;61.76
13734;BME280;43298;52.560;13.508;2022-09-03T15:58:59;101102.16;;;23.25;56.51
13734;BME280;43298;52.560;13.508;2022-09-03T16:01:51;101109.94;;;23.26;57.87
13734;BME280;43298;52.560;13.508;2022-09-03T16:04:51;101106.75;;;23.23;56.64
13734;BME280;43298;52.560;13.508;2022-09-03T16:07:25;101108.09;;;23.17;56.65
13734;BME280;43298;52.560;13.508;2022-09-03T16:10:10;101109.69;;;22.60;61.31
13734;BME280;43298;52.560;13.508;2022-09-03T16:16:10;101104.44;;;22.99;61.08
13734;BME280;43298;52.560;13.508;2022-09-03T16:24:01;101110.06;;;22.14;65.51
13734;BME280;43298;52.560;13.508;2022-09-03T16:26:36;101111.03;;;22.34;66.09
13734;BME280;43298;52.560;13.508;2022-09-03T16:29:13;101115.22;;;22.87;65.12
13734;BME280;43298;52.560;13.508;2022-09-03T16:32:02;101107.63;;;23.33;61.76